sensor_id;sensor_type;location;lat;lon;timestamp;P1;durP1;ratioP1;P2;durP2;ratioP2
5722;SDS011;2886;49.722;8.612;2023-03-24T00:01:03;4.23;;;2.70;;
5722;SDS011;2886;49.722;8.612;2023-03-24T00:03:31;4.20;;;2.50;;
5722;SDS011;2886;49.722;8.612;2023-03-24T00:05:57;7.43;;;2.40;;
5722;SDS011;2886;49.722;8.612;2023-03-24T00:08:26;2.90;;;2.60;;
5722;SDS011;2886;49.722;8.612;2023-03-24T00:10:58;4.00;;;2.60;;
5722;SDS011;2886;49.722;8.612;2023-03-24T00:13:32;3.23;;;2.70;;
5722;SDS011;2886;49.722;8.612;2023-03-24T00:16:05;3.73;;;2.53;;
5722;SDS011;2886;49.722;8.612;2023-03-24T00:18:36;4.53;;;2.40;;
5722;SDS011;2886;49.722;8.612;2023-03-24T00:21:03;5.07;;;3.13;;
5722;SDS011;2886;49.722;8.612;2023-03-24T00:23:30;3.47;;;2.40;;
5722;SDS011;2886;49.722;8.612;2023-03-24T00:26:05;4.07;;;2.90;;
5722;SDS011;2886;49.722;8.612;2023-03-24T00:28:33;2.97;;;2.67;;
5722;SDS011;2886;49.722;8.612;2023-03-24T00:31:01;3.10;;;2.50;;
5722;SDS011;2886;49.722;8.612;2023-03-24T00:33:29;4.93;;;2.70;;
5722;SDS011;2886;49.722;8.612;2023-03-24T00:35:57;3.43;;;2.40;;
5722;SDS011;2886;49.722;8.612;2023-03-24T00:38:26;5.10;;;3.20;;
5722;SDS011;2886;49.722;8.612;2023-03-24T00:40:52;4.87;;;2.47;;
5722;SDS011;2886;49.722;8.612;2023-03-24T00:43:18;4.70;;;2.83;;
5722;SDS011;2886;49.722;8.612;2023-03-24T00:45:45;2.93;;;2.63;;
5722;SDS011;2886;49.722;8.612;2023-03-24T00:48:14;6.70;;;3.37;;
5722;SDS011;2886;49.722;8.612;2023-03-24T00:50:45;4.90;;;2.83;;
5722;SDS011;2886;49.722;8.612;2023-03-24T00:53:13;11.33;;;3.07;;
5722;SDS011;2886;49.722;8.612;2023-03-24T00:55:40;3.27;;;2.93;;
5722;SDS011;2886;49.722;8.612;2023-03-24T00:58:17;2.73;;;2.53;;
5722;SDS011;2886;49.722;8.612;2023-03-24T01:00:44;3.40;;;2.67;;
5722;SDS011;2886;49.722;8.612;2023-03-24T01:03:11;5.00;;;3.20;;
5722;SDS011;2886;49.722;8.612;2023-03-24T01:05:37;4.57;;;3.10;;
5722;SDS011;2886;49.722;8.612;2023-03-24T01:08:04;4.83;;;3.03;;
5722;SDS011;2886;49.722;8.612;2023-03-24T01:10:37;3.73;;;2.53;;
5722;SDS011;2886;49.722;8.612;2023-03-24T01:13:17;5.03;;;2.43;;
5722;SDS011;2886;49.722;8.612;2023-03-24T01:15:45;5.57;;;2.40;;
5722;SDS011;2886;49.722;8.612;2023-03-24T01:18:11;7.70;;;2.57;;
5722;SDS011;2886;49.722;8.612;2023-03-24T01:20:38;3.60;;;2.60;;
5722;SDS011;2886;49.722;8.612;2023-03-24T01:23:05;3.73;;;2.70;;
5722;SDS011;2886;49.722;8.612;2023-03-24T01:25:32;5.40;;;2.20;;
5722;SDS011;2886;49.722;8.612;2023-03-24T01:28:00;2.30;;;2.10;;
5722;SDS011;2886;49.722;8.612;2023-03-24T01:30:26;2.50;;;2.30;;
5722;SDS011;2886;49.722;8.612;2023-03-24T01:32:56;3.23;;;2.37;;
5722;SDS011;2886;49.722;8.612;2023-03-24T01:35:23;2.53;;;2.13;;
5722;SDS011;2886;49.722;8.612;2023-03-24T01:37:50;3.07;;;2.07;;
5722;SDS011;2886;49.722;8.612;2023-03-24T01:40:18;4.10;;;2.30;;
5722;SDS011;2886;49.722;8.612;2023-03-24T01:42:45;3.17;;;2.10;;
5722;SDS011;2886;49.722;8.612;2023-03-24T01:48:19;3.77;;;2.43;;
5722;SDS011;2886;49.722;8.612;2023-03-24T01:51:01;3.30;;;2.40;;
5722;SDS011;2886;49.722;8.612;2023-03-24T01:53:39;3.50;;;2.77;;
5722;SDS011;2886;49.722;8.612;2023-03-24T01:56:09;6.33;;;2.40;;
5722;SDS011;2886;49.722;8.612;2023-03-24T01:58:35;4.63;;;2.00;;
5722;SDS011;2886;49.722;8.612;2023-03-24T02:01:04;2.43;;;2.03;;
5722;SDS011;2886;49.722;8.612;2023-03-24T02:03:30;2.70;;;2.20;;
5722;SDS011;2886;49.722;8.612;2023-03-24T02:06:00;2.27;;;2.07;;
5722;SDS011;2886;49.722;8.612;2023-03-24T02:08:48;2.40;;;1.90;;
5722;SDS011;2886;49.722;8.612;2023-03-24T02:11:18;4.10;;;2.00;;
5722;SDS011;2886;49.722;8.612;2023-03-24T02:13:44;3.33;;;2.50;;
5722;SDS011;2886;49.722;8.612;2023-03-24T02:30:40;3.10;;;1.97;;
5722;SDS011;2886;49.722;8.612;2023-03-24T02:47:13;2.43;;;2.00;;
5722;SDS011;2886;49.722;8.612;2023-03-24T02:52:20;2.90;;;1.80;;
5722;SDS011;2886;49.722;8.612;2023-03-24T02:57:22;6.40;;;1.87;;
5722;SDS011;2886;49.722;8.612;2023-03-24T03:02:39;2.07;;;1.87;;
5722;SDS011;2886;49.722;8.612;2023-03-24T03:05:22;3.40;;;2.10;;
5722;SDS011;2886;49.722;8.612;2023-03-24T03:07:52;2.20;;;2.00;;
5722;SDS011;2886;49.722;8.612;2023-03-24T03:10:23;3.53;;;2.07;;
5722;SDS011;2886;49.722;8.612;2023-03-24T03:12:54;2.50;;;1.93;;
5722;SDS011;2886;49.722;8.612;2023-03-24T03:15:26;2.53;;;1.80;;
5722;SDS011;2886;49.722;8.612;2023-03-24T03:18:09;3.93;;;2.00;;
5722;SDS011;2886;49.722;8.612;2023-03-24T03:20:43;2.93;;;1.80;;
5722;SDS011;2886;49.722;8.612;2023-03-24T03:23:31;2.50;;;2.00;;
5722;SDS011;2886;49.722;8.612;2023-03-24T03:26:02;4.67;;;2.43;;
5722;SDS011;2886;49.722;8.612;2023-03-24T03:28:34;2.90;;;2.10;;
5722;SDS011;2886;49.722;8.612;2023-03-24T03:31:10;2.70;;;2.40;;
5722;SDS011;2886;49.722;8.612;2023-03-24T03:33:49;3.73;;;2.17;;
5722;SDS011;2886;49.722;8.612;2023-03-24T03:36:25;3.80;;;2.27;;
5722;SDS011;2886;49.722;8.612;2023-03-24T03:39:10;2.90;;;2.30;;
5722;SDS011;2886;49.722;8.612;2023-03-24T03:41:42;3.40;;;2.30;;
5722;SDS011;2886;49.722;8.612;2023-03-24T03:44:08;2.43;;;2.20;;
5722;SDS011;2886;49.722;8.612;2023-03-24T03:46:34;4.10;;;2.07;;
5722;SDS011;2886;49.722;8.612;2023-03-24T03:49:01;2.60;;;2.20;;
5722;SDS011;2886;49.722;8.612;2023-03-24T03:51:27;2.53;;;2.10;;
5722;SDS011;2886;49.722;8.612;2023-03-24T03:53:55;3.60;;;2.40;;
5722;SDS011;2886;49.722;8.612;2023-03-24T03:56:25;4.20;;;2.13;;
5722;SDS011;2886;49.722;8.612;2023-03-24T03:58:53;3.20;;;2.63;;
5722;SDS011;2886;49.722;8.612;2023-03-24T04:01:20;4.10;;;2.40;;
5722;SDS011;2886;49.722;8.612;2023-03-24T04:04:06;2.33;;;2.10;;
5722;SDS011;2886;49.722;8.612;2023-03-24T04:12:18;3.13;;;2.60;;
5722;SDS011;2886;49.722;8.612;2023-03-24T04:15:17;2.50;;;2.20;;
5722;SDS011;2886;49.722;8.612;2023-03-24T04:18:11;2.90;;;2.13;;
5722;SDS011;2886;49.722;8.612;2023-03-24T04:23:44;4.30;;;2.27;;
5722;SDS011;2886;49.722;8.612;2023-03-24T04:32:50;2.90;;;2.60;;
5722;SDS011;2886;49.722;8.612;2023-03-24T04:37:59;4.03;;;2.30;;
5722;SDS011;2886;49.722;8.612;2023-03-24T04:40:33;3.60;;;2.50;;
5722;SDS011;2886;49.722;8.612;2023-03-24T04:43:05;4.37;;;3.03;;
5722;SDS011;2886;49.722;8.612;2023-03-24T04:45:34;3.33;;;2.50;;
5722;SDS011;2886;49.722;8.612;2023-03-24T04:48:01;2.50;;;2.30;;
5722;SDS011;2886;49.722;8.612;2023-03-24T04:50:31;3.17;;;2.33;;
5722;SDS011;2886;49.722;8.612;2023-03-24T04:53:01;4.17;;;2.50;;
5722;SDS011;2886;49.722;8.612;2023-03-24T04:55:31;3.80;;;2.23;;
5722;SDS011;2886;49.722;8.612;2023-03-24T04:58:09;4.20;;;2.13;;
5722;SDS011;2886;49.722;8.612;2023-03-24T05:00:35;3.40;;;2.30;;
5722;SDS011;2886;49.722;8.612;2023-03-24T05:03:02;3.80;;;2.60;;
5722;SDS011;2886;49.722;8.612;2023-03-24T05:05:29;3.00;;;2.50;;
5722;SDS011;2886;49.722;8.612;2023-03-24T05:07:54;2.50;;;2.30;;
5722;SDS011;2886;49.722;8.612;2023-03-24T05:10:21;7.50;;;3.23;;
5722;SDS011;2886;49.722;8.612;2023-03-24T05:12:47;2.30;;;2.10;;
5722;SDS011;2886;49.722;8.612;2023-03-24T05:15:16;7.63;;;2.77;;
5722;SDS011;2886;49.722;8.612;2023-03-24T05:17:41;3.63;;;2.77;;
5722;SDS011;2886;49.722;8.612;2023-03-24T05:22:39;3.30;;;2.33;;
5722;SDS011;2886;49.722;8.612;2023-03-24T05:25:05;3.70;;;2.37;;
5722;SDS011;2886;49.722;8.612;2023-03-24T05:27:31;4.57;;;2.40;;
5722;SDS011;2886;49.722;8.612;2023-03-24T05:29:57;3.93;;;2.37;;
5722;SDS011;2886;49.722;8.612;2023-03-24T05:32:22;3.50;;;2.07;;
5722;SDS011;2886;49.722;8.612;2023-03-24T05:34:48;2.50;;;2.30;;
5722;SDS011;2886;49.722;8.612;2023-03-24T05:37:13;3.33;;;2.10;;
5722;SDS011;2886;49.722;8.612;2023-03-24T05:39:41;4.40;;;2.37;;
5722;SDS011;2886;49.722;8.612;2023-03-24T05:42:07;4.80;;;2.37;;
5722;SDS011;2886;49.722;8.612;2023-03-24T05:44:34;3.00;;;2.23;;
5722;SDS011;2886;49.722;8.612;2023-03-24T05:47:00;3.60;;;2.40;;
5722;SDS011;2886;49.722;8.612;2023-03-24T05:49:25;4.53;;;2.27;;
5722;SDS011;2886;49.722;8.612;2023-03-24T05:51:51;4.80;;;2.50;;
5722;SDS011;2886;49.722;8.612;2023-03-24T05:54:17;3.57;;;2.23;;
5722;SDS011;2886;49.722;8.612;2023-03-24T05:56:42;3.70;;;2.47;;
5722;SDS011;2886;49.722;8.612;2023-03-24T05:59:08;2.60;;;2.20;;
5722;SDS011;2886;49.722;8.612;2023-03-24T06:01:35;2.73;;;2.20;;
5722;SDS011;2886;49.722;8.612;2023-03-24T06:04:01;4.13;;;2.40;;
5722;SDS011;2886;49.722;8.612;2023-03-24T06:06:26;4.30;;;2.93;;
5722;SDS011;2886;49.722;8.612;2023-03-24T06:08:52;4.00;;;2.50;;
5722;SDS011;2886;49.722;8.612;2023-03-24T06:11:22;2.63;;;2.40;;
5722;SDS011;2886;49.722;8.612;2023-03-24T06:13:48;10.20;;;2.67;;
5722;SDS011;2886;49.722;8.612;2023-03-24T06:16:14;3.73;;;2.60;;
5722;SDS011;2886;49.722;8.612;2023-03-24T06:18:43;4.17;;;3.40;;
5722;SDS011;2886;49.722;8.612;2023-03-24T06:21:16;6.70;;;3.43;;
5722;SDS011;2886;49.722;8.612;2023-03-24T06:23:43;3.30;;;2.60;;
5722;SDS011;2886;49.722;8.612;2023-03-24T06:26:10;4.83;;;2.80;;
5722;SDS011;2886;49.722;8.612;2023-03-24T06:28:38;2.40;;;2.20;;
5722;SDS011;2886;49.722;8.612;2023-03-24T06:31:04;3.30;;;2.70;;
5722;SDS011;2886;49.722;8.612;2023-03-24T06:33:30;2.50;;;2.30;;
5722;SDS011;2886;49.722;8.612;2023-03-24T06:35:56;2.50;;;2.10;;
5722;SDS011;2886;49.722;8.612;2023-03-24T06:38:22;4.60;;;3.03;;
5722;SDS011;2886;49.722;8.612;2023-03-24T06:40:47;6.33;;;3.60;;
5722;SDS011;2886;49.722;8.612;2023-03-24T06:43:13;5.20;;;3.47;;
5722;SDS011;2886;49.722;8.612;2023-03-24T06:45:38;3.87;;;3.43;;
5722;SDS011;2886;49.722;8.612;2023-03-24T06:48:04;5.10;;;3.13;;
5722;SDS011;2886;49.722;8.612;2023-03-24T06:50:33;4.00;;;2.90;;
5722;SDS011;2886;49.722;8.612;2023-03-24T06:53:00;6.70;;;3.63;;
5722;SDS011;2886;49.722;8.612;2023-03-24T06:55:25;4.00;;;3.23;;
5722;SDS011;2886;49.722;8.612;2023-03-24T06:57:52;4.47;;;3.30;;
5722;SDS011;2886;49.722;8.612;2023-03-24T07:00:18;3.93;;;3.33;;
5722;SDS011;2886;49.722;8.612;2023-03-24T07:02:44;5.10;;;3.77;;
5722;SDS011;2886;49.722;8.612;2023-03-24T07:05:09;5.00;;;3.70;;
5722;SDS011;2886;49.722;8.612;2023-03-24T07:07:36;5.27;;;3.30;;
5722;SDS011;2886;49.722;8.612;2023-03-24T07:10:05;5.13;;;4.20;;
5722;SDS011;2886;49.722;8.612;2023-03-24T07:12:31;9.13;;;3.77;;
5722;SDS011;2886;49.722;8.612;2023-03-24T07:14:58;5.20;;;3.50;;
5722;SDS011;2886;49.722;8.612;2023-03-24T07:17:24;5.20;;;3.30;;
5722;SDS011;2886;49.722;8.612;2023-03-24T07:19:53;5.83;;;3.60;;
5722;SDS011;2886;49.722;8.612;2023-03-24T07:22:18;5.70;;;3.57;;
5722;SDS011;2886;49.722;8.612;2023-03-24T07:24:44;4.53;;;3.70;;
5722;SDS011;2886;49.722;8.612;2023-03-24T07:27:10;5.00;;;3.27;;
5722;SDS011;2886;49.722;8.612;2023-03-24T07:29:35;5.37;;;3.67;;
5722;SDS011;2886;49.722;8.612;2023-03-24T07:32:01;5.67;;;3.67;;
5722;SDS011;2886;49.722;8.612;2023-03-24T07:34:28;6.30;;;3.80;;
5722;SDS011;2886;49.722;8.612;2023-03-24T07:36:53;6.87;;;3.73;;
5722;SDS011;2886;49.722;8.612;2023-03-24T07:39:20;5.77;;;4.00;;
5722;SDS011;2886;49.722;8.612;2023-03-24T07:41:46;5.57;;;4.40;;
5722;SDS011;2886;49.722;8.612;2023-03-24T07:44:12;6.27;;;4.67;;
5722;SDS011;2886;49.722;8.612;2023-03-24T07:46:38;6.50;;;4.90;;
5722;SDS011;2886;49.722;8.612;2023-03-24T07:49:04;6.97;;;4.50;;
5722;SDS011;2886;49.722;8.612;2023-03-24T07:51:30;8.00;;;5.07;;
5722;SDS011;2886;49.722;8.612;2023-03-24T07:53:56;8.40;;;5.17;;
5722;SDS011;2886;49.722;8.612;2023-03-24T07:56:22;6.93;;;4.97;;
5722;SDS011;2886;49.722;8.612;2023-03-24T07:58:48;6.57;;;4.60;;
5722;SDS011;2886;49.722;8.612;2023-03-24T08:01:14;5.67;;;4.40;;
5722;SDS011;2886;49.722;8.612;2023-03-24T08:03:39;6.07;;;4.47;;
5722;SDS011;2886;49.722;8.612;2023-03-24T08:06:08;10.00;;;4.80;;
5722;SDS011;2886;49.722;8.612;2023-03-24T08:08:35;5.37;;;4.07;;
5722;SDS011;2886;49.722;8.612;2023-03-24T08:11:02;6.90;;;3.83;;
5722;SDS011;2886;49.722;8.612;2023-03-24T08:13:31;5.40;;;4.67;;
5722;SDS011;2886;49.722;8.612;2023-03-24T08:15:57;8.90;;;4.80;;
5722;SDS011;2886;49.722;8.612;2023-03-24T08:18:23;6.33;;;4.80;;
5722;SDS011;2886;49.722;8.612;2023-03-24T08:20:49;5.67;;;4.40;;
5722;SDS011;2886;49.722;8.612;2023-03-24T08:23:23;6.07;;;4.03;;
5722;SDS011;2886;49.722;8.612;2023-03-24T08:25:49;7.20;;;4.60;;
5722;SDS011;2886;49.722;8.612;2023-03-24T08:28:14;6.53;;;4.70;;
5722;SDS011;2886;49.722;8.612;2023-03-24T08:30:40;6.60;;;4.50;;
5722;SDS011;2886;49.722;8.612;2023-03-24T08:35:34;5.23;;;4.20;;
5722;SDS011;2886;49.722;8.612;2023-03-24T08:38:02;6.93;;;5.10;;
5722;SDS011;2886;49.722;8.612;2023-03-24T08:40:28;4.80;;;4.17;;
5722;SDS011;2886;49.722;8.612;2023-03-24T08:42:56;6.30;;;4.60;;
5722;SDS011;2886;49.722;8.612;2023-03-24T08:45:25;8.03;;;5.23;;
5722;SDS011;2886;49.722;8.612;2023-03-24T08:47:55;7.10;;;4.77;;
5722;SDS011;2886;49.722;8.612;2023-03-24T08:50:23;8.20;;;4.60;;
5722;SDS011;2886;49.722;8.612;2023-03-24T08:52:52;6.40;;;4.17;;
5722;SDS011;2886;49.722;8.612;2023-03-24T08:55:23;5.73;;;4.30;;
5722;SDS011;2886;49.722;8.612;2023-03-24T08:57:48;5.80;;;3.87;;
5722;SDS011;2886;49.722;8.612;2023-03-24T09:00:15;5.90;;;4.30;;
5722;SDS011;2886;49.722;8.612;2023-03-24T09:02:43;4.57;;;3.90;;
5722;SDS011;2886;49.722;8.612;2023-03-24T09:05:10;4.27;;;3.83;;
5722;SDS011;2886;49.722;8.612;2023-03-24T09:07:37;5.23;;;3.93;;
5722;SDS011;2886;49.722;8.612;2023-03-24T09:10:07;4.87;;;4.20;;
5722;SDS011;2886;49.722;8.612;2023-03-24T09:12:35;3.90;;;3.50;;
5722;SDS011;2886;49.722;8.612;2023-03-24T09:15:03;3.90;;;3.30;;
5722;SDS011;2886;49.722;8.612;2023-03-24T09:17:30;3.50;;;2.87;;
5722;SDS011;2886;49.722;8.612;2023-03-24T09:19:56;3.60;;;2.90;;
5722;SDS011;2886;49.722;8.612;2023-03-24T09:22:22;3.63;;;2.70;;
5722;SDS011;2886;49.722;8.612;2023-03-24T09:24:48;5.43;;;3.90;;
5722;SDS011;2886;49.722;8.612;2023-03-24T09:27:14;3.87;;;3.27;;
5722;SDS011;2886;49.722;8.612;2023-03-24T09:29:40;3.07;;;2.77;;
5722;SDS011;2886;49.722;8.612;2023-03-24T09:32:06;5.13;;;2.90;;
5722;SDS011;2886;49.722;8.612;2023-03-24T09:34:32;5.20;;;3.07;;
5722;SDS011;2886;49.722;8.612;2023-03-24T09:37:01;3.53;;;3.13;;
5722;SDS011;2886;49.722;8.612;2023-03-24T09:39:26;2.87;;;2.57;;
5722;SDS011;2886;49.722;8.612;2023-03-24T09:41:55;5.30;;;2.80;;
5722;SDS011;2886;49.722;8.612;2023-03-24T09:44:26;4.47;;;2.83;;
5722;SDS011;2886;49.722;8.612;2023-03-24T09:50:02;3.90;;;2.70;;
5722;SDS011;2886;49.722;8.612;2023-03-24T09:52:39;3.03;;;2.60;;
5722;SDS011;2886;49.722;8.612;2023-03-24T09:55:10;4.10;;;2.80;;
5722;SDS011;2886;49.722;8.612;2023-03-24T09:57:41;4.13;;;2.70;;
5722;SDS011;2886;49.722;8.612;2023-03-24T10:02:45;12.50;;;2.90;;
5722;SDS011;2886;49.722;8.612;2023-03-24T10:05:16;3.80;;;2.80;;
5722;SDS011;2886;49.722;8.612;2023-03-24T10:07:52;5.43;;;3.40;;
5722;SDS011;2886;49.722;8.612;2023-03-24T10:13:07;3.90;;;2.80;;
5722;SDS011;2886;49.722;8.612;2023-03-24T10:15:55;5.70;;;3.60;;
5722;SDS011;2886;49.722;8.612;2023-03-24T10:21:23;3.20;;;2.90;;
5722;SDS011;2886;49.722;8.612;2023-03-24T10:26:41;13.17;;;7.17;;
5722;SDS011;2886;49.722;8.612;2023-03-24T10:29:26;5.20;;;3.40;;
5722;SDS011;2886;49.722;8.612;2023-03-24T10:32:15;3.93;;;3.40;;
5722;SDS011;2886;49.722;8.612;2023-03-24T10:34:46;5.70;;;4.17;;
5722;SDS011;2886;49.722;8.612;2023-03-24T10:37:21;7.10;;;3.90;;
5722;SDS011;2886;49.722;8.612;2023-03-24T10:39:47;2.43;;;2.17;;
5722;SDS011;2886;49.722;8.612;2023-03-24T10:42:17;1.70;;;1.30;;
5722;SDS011;2886;49.722;8.612;2023-03-24T10:44:46;4.87;;;1.50;;
5722;SDS011;2886;49.722;8.612;2023-03-24T10:47:14;2.60;;;1.30;;
5722;SDS011;2886;49.722;8.612;2023-03-24T10:50:04;1.17;;;1.00;;
5722;SDS011;2886;49.722;8.612;2023-03-24T10:52:38;2.57;;;1.63;;
5722;SDS011;2886;49.722;8.612;2023-03-24T10:55:13;1.20;;;1.10;;
5722;SDS011;2886;49.722;8.612;2023-03-24T10:57:43;2.30;;;1.70;;
5722;SDS011;2886;49.722;8.612;2023-03-24T11:03:01;2.80;;;1.50;;
5722;SDS011;2886;49.722;8.612;2023-03-24T11:05:35;1.77;;;1.43;;
5722;SDS011;2886;49.722;8.612;2023-03-24T11:10:41;2.90;;;1.50;;
5722;SDS011;2886;49.722;8.612;2023-03-24T11:13:15;1.70;;;1.50;;
5722;SDS011;2886;49.722;8.612;2023-03-24T11:16:07;2.63;;;1.40;;
5722;SDS011;2886;49.722;8.612;2023-03-24T11:18:34;3.13;;;1.63;;
5722;SDS011;2886;49.722;8.612;2023-03-24T11:21:01;5.37;;;1.90;;
5722;SDS011;2886;49.722;8.612;2023-03-24T11:23:29;1.70;;;1.60;;
5722;SDS011;2886;49.722;8.612;2023-03-24T11:26:01;2.20;;;1.70;;
5722;SDS011;2886;49.722;8.612;2023-03-24T11:28:44;1.23;;;1.13;;
5722;SDS011;2886;49.722;8.612;2023-03-24T11:31:36;3.20;;;1.70;;
5722;SDS011;2886;49.722;8.612;2023-03-24T11:34:07;3.70;;;1.93;;
5722;SDS011;2886;49.722;8.612;2023-03-24T11:36:38;1.80;;;1.70;;
5722;SDS011;2886;49.722;8.612;2023-03-24T11:41:58;1.63;;;1.53;;
5722;SDS011;2886;49.722;8.612;2023-03-24T12:00:59;2.80;;;1.50;;
5722;SDS011;2886;49.722;8.612;2023-03-24T12:06:22;1.50;;;1.40;;
5722;SDS011;2886;49.722;8.612;2023-03-24T12:09:23;2.13;;;1.53;;
5722;SDS011;2886;49.722;8.612;2023-03-24T12:17:55;2.80;;;1.20;;
5722;SDS011;2886;49.722;8.612;2023-03-24T12:26:23;3.23;;;1.67;;
5722;SDS011;2886;49.722;8.612;2023-03-24T12:31:42;5.80;;;1.27;;
5722;SDS011;2886;49.722;8.612;2023-03-24T12:34:30;2.23;;;1.40;;
5722;SDS011;2886;49.722;8.612;2023-03-24T12:37:14;2.07;;;1.50;;
5722;SDS011;2886;49.722;8.612;2023-03-24T12:42:46;1.40;;;1.30;;
5722;SDS011;2886;49.722;8.612;2023-03-24T12:56:49;1.97;;;1.53;;
5722;SDS011;2886;49.722;8.612;2023-03-24T12:59:37;2.20;;;1.60;;
5722;SDS011;2886;49.722;8.612;2023-03-24T13:05:00;3.07;;;1.53;;
5722;SDS011;2886;49.722;8.612;2023-03-24T13:07:31;3.63;;;1.37;;
5722;SDS011;2886;49.722;8.612;2023-03-24T13:17:44;4.00;;;2.03;;
5722;SDS011;2886;49.722;8.612;2023-03-24T13:20:31;3.20;;;1.50;;
5722;SDS011;2886;49.722;8.612;2023-03-24T13:26:00;1.80;;;1.63;;
5722;SDS011;2886;49.722;8.612;2023-03-24T13:28:45;3.57;;;1.57;;
5722;SDS011;2886;49.722;8.612;2023-03-24T13:31:22;4.20;;;1.73;;
5722;SDS011;2886;49.722;8.612;2023-03-24T13:33:51;6.00;;;1.50;;
5722;SDS011;2886;49.722;8.612;2023-03-24T13:36:38;2.57;;;1.50;;
5722;SDS011;2886;49.722;8.612;2023-03-24T13:39:13;4.37;;;1.90;;
5722;SDS011;2886;49.722;8.612;2023-03-24T13:41:40;1.83;;;1.60;;
5722;SDS011;2886;49.722;8.612;2023-03-24T13:44:22;13.97;;;1.70;;
5722;SDS011;2886;49.722;8.612;2023-03-24T13:47:05;3.20;;;1.30;;
5722;SDS011;2886;49.722;8.612;2023-03-24T13:49:37;3.37;;;1.83;;
5722;SDS011;2886;49.722;8.612;2023-03-24T13:52:06;5.53;;;1.77;;
5722;SDS011;2886;49.722;8.612;2023-03-24T13:55:13;1.30;;;1.20;;
5722;SDS011;2886;49.722;8.612;2023-03-24T13:57:50;3.50;;;1.40;;
5722;SDS011;2886;49.722;8.612;2023-03-24T14:00:22;3.70;;;1.67;;
5722;SDS011;2886;49.722;8.612;2023-03-24T14:02:50;2.93;;;1.40;;
5722;SDS011;2886;49.722;8.612;2023-03-24T14:05:32;7.30;;;1.80;;
5722;SDS011;2886;49.722;8.612;2023-03-24T14:15:50;1.40;;;1.30;;
5722;SDS011;2886;49.722;8.612;2023-03-24T14:26:32;5.57;;;1.60;;
5722;SDS011;2886;49.722;8.612;2023-03-24T14:29:01;7.40;;;2.07;;
5722;SDS011;2886;49.722;8.612;2023-03-24T14:31:28;2.33;;;1.60;;
5722;SDS011;2886;49.722;8.612;2023-03-24T14:37:01;3.07;;;2.10;;
5722;SDS011;2886;49.722;8.612;2023-03-24T14:39:35;3.27;;;1.90;;
5722;SDS011;2886;49.722;8.612;2023-03-24T14:44:51;5.13;;;1.80;;
5722;SDS011;2886;49.722;8.612;2023-03-24T14:47:25;5.97;;;1.60;;
5722;SDS011;2886;49.722;8.612;2023-03-24T14:49:56;2.10;;;1.57;;
5722;SDS011;2886;49.722;8.612;2023-03-24T14:52:44;1.90;;;1.70;;
5722;SDS011;2886;49.722;8.612;2023-03-24T14:55:15;5.63;;;1.73;;
5722;SDS011;2886;49.722;8.612;2023-03-24T14:57:47;3.53;;;1.47;;
5722;SDS011;2886;49.722;8.612;2023-03-24T15:02:51;3.00;;;1.83;;
5722;SDS011;2886;49.722;8.612;2023-03-24T15:07:57;3.50;;;1.60;;
5722;SDS011;2886;49.722;8.612;2023-03-24T15:10:39;2.50;;;1.37;;
5722;SDS011;2886;49.722;8.612;2023-03-24T15:16:27;2.30;;;1.50;;
5722;SDS011;2886;49.722;8.612;2023-03-24T15:18:57;2.30;;;1.53;;
5722;SDS011;2886;49.722;8.612;2023-03-24T15:21:27;8.00;;;1.93;;
5722;SDS011;2886;49.722;8.612;2023-03-24T15:23:53;1.50;;;1.30;;
5722;SDS011;2886;49.722;8.612;2023-03-24T15:26:21;1.80;;;1.30;;
5722;SDS011;2886;49.722;8.612;2023-03-24T15:28:55;4.90;;;1.67;;
5722;SDS011;2886;49.722;8.612;2023-03-24T15:31:23;8.10;;;1.70;;
5722;SDS011;2886;49.722;8.612;2023-03-24T15:34:00;4.80;;;1.43;;
5722;SDS011;2886;49.722;8.612;2023-03-24T15:36:51;3.60;;;1.10;;
5722;SDS011;2886;49.722;8.612;2023-03-24T15:39:33;1.57;;;1.30;;
5722;SDS011;2886;49.722;8.612;2023-03-24T15:42:03;2.27;;;1.63;;
5722;SDS011;2886;49.722;8.612;2023-03-24T15:44:30;5.17;;;1.57;;
5722;SDS011;2886;49.722;8.612;2023-03-24T15:47:02;3.40;;;1.40;;
5722;SDS011;2886;49.722;8.612;2023-03-24T15:49:35;5.90;;;1.90;;
5722;SDS011;2886;49.722;8.612;2023-03-24T15:54:39;10.30;;;1.20;;
5722;SDS011;2886;49.722;8.612;2023-03-24T15:57:20;7.80;;;1.30;;
5722;SDS011;2886;49.722;8.612;2023-03-24T16:02:32;3.60;;;1.17;;
5722;SDS011;2886;49.722;8.612;2023-03-24T16:05:04;7.70;;;2.30;;
5722;SDS011;2886;49.722;8.612;2023-03-24T16:07:40;6.57;;;1.63;;
5722;SDS011;2886;49.722;8.612;2023-03-24T16:10:18;4.73;;;1.43;;
5722;SDS011;2886;49.722;8.612;2023-03-24T16:12:57;2.90;;;1.23;;
5722;SDS011;2886;49.722;8.612;2023-03-24T16:15:35;5.30;;;1.57;;
5722;SDS011;2886;49.722;8.612;2023-03-24T16:18:00;4.77;;;1.40;;
5722;SDS011;2886;49.722;8.612;2023-03-24T16:20:27;3.80;;;1.20;;
5722;SDS011;2886;49.722;8.612;2023-03-24T16:22:56;3.43;;;1.40;;
5722;SDS011;2886;49.722;8.612;2023-03-24T16:25:21;1.93;;;1.17;;
5722;SDS011;2886;49.722;8.612;2023-03-24T16:27:50;5.47;;;1.63;;
5722;SDS011;2886;49.722;8.612;2023-03-24T16:30:16;5.03;;;1.77;;
5722;SDS011;2886;49.722;8.612;2023-03-24T16:32:45;6.97;;;1.93;;
5722;SDS011;2886;49.722;8.612;2023-03-24T16:35:11;9.10;;;1.40;;
5722;SDS011;2886;49.722;8.612;2023-03-24T16:37:36;6.33;;;1.60;;
5722;SDS011;2886;49.722;8.612;2023-03-24T16:40:08;7.27;;;1.93;;
5722;SDS011;2886;49.722;8.612;2023-03-24T16:42:49;1.50;;;1.40;;
5722;SDS011;2886;49.722;8.612;2023-03-24T16:45:15;2.00;;;1.37;;
5722;SDS011;2886;49.722;8.612;2023-03-24T16:47:40;8.40;;;1.80;;
5722;SDS011;2886;49.722;8.612;2023-03-24T16:50:16;8.03;;;1.87;;
5722;SDS011;2886;49.722;8.612;2023-03-24T16:52:52;1.80;;;1.30;;
5722;SDS011;2886;49.722;8.612;2023-03-24T16:55:18;2.37;;;1.33;;
5722;SDS011;2886;49.722;8.612;2023-03-24T16:57:44;4.40;;;1.93;;
5722;SDS011;2886;49.722;8.612;2023-03-24T17:00:12;3.00;;;1.53;;
5722;SDS011;2886;49.722;8.612;2023-03-24T17:02:38;4.90;;;1.40;;
5722;SDS011;2886;49.722;8.612;2023-03-24T17:07:42;3.43;;;1.30;;
5722;SDS011;2886;49.722;8.612;2023-03-24T17:10:08;4.40;;;1.50;;
5722;SDS011;2886;49.722;8.612;2023-03-24T17:12:34;3.70;;;1.30;;
5722;SDS011;2886;49.722;8.612;2023-03-24T17:14:59;2.60;;;1.63;;
5722;SDS011;2886;49.722;8.612;2023-03-24T17:17:25;4.57;;;1.57;;
5722;SDS011;2886;49.722;8.612;2023-03-24T17:19:51;9.30;;;1.73;;
5722;SDS011;2886;49.722;8.612;2023-03-24T17:22:16;5.10;;;1.80;;
5722;SDS011;2886;49.722;8.612;2023-03-24T17:24:43;2.57;;;1.30;;
5722;SDS011;2886;49.722;8.612;2023-03-24T17:27:13;3.33;;;1.77;;
5722;SDS011;2886;49.722;8.612;2023-03-24T17:29:45;3.20;;;1.50;;
5722;SDS011;2886;49.722;8.612;2023-03-24T17:32:14;1.93;;;1.20;;
5722;SDS011;2886;49.722;8.612;2023-03-24T17:34:46;4.20;;;1.93;;
5722;SDS011;2886;49.722;8.612;2023-03-24T17:37:11;2.07;;;1.20;;
5722;SDS011;2886;49.722;8.612;2023-03-24T17:39:39;2.60;;;1.30;;
5722;SDS011;2886;49.722;8.612;2023-03-24T17:42:05;5.30;;;1.80;;
5722;SDS011;2886;49.722;8.612;2023-03-24T17:44:31;8.23;;;1.73;;
5722;SDS011;2886;49.722;8.612;2023-03-24T17:46:57;1.50;;;1.10;;
5722;SDS011;2886;49.722;8.612;2023-03-24T17:49:23;3.63;;;1.47;;
5722;SDS011;2886;49.722;8.612;2023-03-24T17:51:51;4.80;;;1.60;;
5722;SDS011;2886;49.722;8.612;2023-03-24T17:54:17;7.97;;;2.37;;
5722;SDS011;2886;49.722;8.612;2023-03-24T17:56:47;4.30;;;2.10;;
5722;SDS011;2886;49.722;8.612;2023-03-24T17:59:13;13.23;;;1.97;;
5722;SDS011;2886;49.722;8.612;2023-03-24T18:01:38;4.93;;;1.50;;
5722;SDS011;2886;49.722;8.612;2023-03-24T18:04:04;2.57;;;1.37;;
5722;SDS011;2886;49.722;8.612;2023-03-24T18:06:30;5.40;;;1.40;;
5722;SDS011;2886;49.722;8.612;2023-03-24T18:08:55;4.10;;;1.70;;
5722;SDS011;2886;49.722;8.612;2023-03-24T18:11:24;2.50;;;1.23;;
5722;SDS011;2886;49.722;8.612;2023-03-24T18:13:50;3.80;;;1.27;;
5722;SDS011;2886;49.722;8.612;2023-03-24T18:16:16;2.50;;;1.40;;
5722;SDS011;2886;49.722;8.612;2023-03-24T18:18:44;2.93;;;1.40;;
5722;SDS011;2886;49.722;8.612;2023-03-24T18:21:16;4.23;;;1.10;;
5722;SDS011;2886;49.722;8.612;2023-03-24T18:23:45;4.37;;;1.30;;
5722;SDS011;2886;49.722;8.612;2023-03-24T18:26:10;1.53;;;1.03;;
5722;SDS011;2886;49.722;8.612;2023-03-24T18:28:36;2.27;;;1.30;;
5722;SDS011;2886;49.722;8.612;2023-03-24T18:31:07;4.30;;;1.20;;
5722;SDS011;2886;49.722;8.612;2023-03-24T18:33:34;2.13;;;1.00;;
5722;SDS011;2886;49.722;8.612;2023-03-24T18:35:59;8.00;;;2.07;;
5722;SDS011;2886;49.722;8.612;2023-03-24T18:38:25;10.73;;;2.30;;